createdAt,value
2023-03-11T00:00:57.484Z,3.92
2023-03-11T00:03:24.742Z,3.53
2023-03-11T00:05:53.006Z,3.61
2023-03-11T00:08:22.618Z,3.70
2023-03-11T00:10:53.489Z,3.89
2023-03-11T00:13:20.128Z,4.10
2023-03-11T00:15:50.457Z,3.90
2023-03-11T00:18:17.704Z,4.19
2023-03-11T00:20:46.282Z,4.03
2023-03-11T00:23:14.282Z,4.15
2023-03-11T00:25:42.483Z,3.99
2023-03-11T00:28:10.461Z,4.14
2023-03-11T00:30:38.279Z,4.01
2023-03-11T00:33:05.398Z,3.97
2023-03-11T00:35:33.730Z,3.65
2023-03-11T00:38:03.871Z,3.78
2023-03-11T00:40:31.974Z,3.86
2023-03-11T00:42:59.805Z,3.81
2023-03-11T00:45:28.141Z,3.66
2023-03-11T00:47:55.440Z,3.30
2023-03-11T00:50:25.738Z,3.56
2023-03-11T00:52:52.994Z,3.65
2023-03-11T00:55:25.841Z,3.74
2023-03-11T00:57:54.464Z,3.51
2023-03-11T01:00:22.668Z,3.77
2023-03-11T01:02:49.364Z,3.77
2023-03-11T01:05:19.495Z,3.54
2023-03-11T01:07:46.033Z,3.56
2023-03-11T01:10:13.581Z,3.81
2023-03-11T01:12:40.273Z,3.79
2023-03-11T01:15:08.128Z,3.93
2023-03-11T01:17:34.831Z,3.71
2023-03-11T01:20:01.471Z,3.82
2023-03-11T01:22:28.029Z,3.72
2023-03-11T01:24:54.557Z,3.64
2023-03-11T01:27:21.637Z,3.55
2023-03-11T01:29:48.264Z,3.55
2023-03-11T01:32:14.823Z,3.65
2023-03-11T01:34:41.402Z,3.64
2023-03-11T01:37:07.974Z,3.54
2023-03-11T01:39:35.627Z,3.52
2023-03-11T01:42:02.271Z,3.60
2023-03-11T01:44:28.798Z,3.47
2023-03-11T01:46:58.406Z,3.52
2023-03-11T01:49:25.041Z,3.40
2023-03-11T01:51:57.215Z,3.51
2023-03-11T01:54:37.702Z,3.56
2023-03-11T01:57:12.532Z,3.51
2023-03-11T01:59:44.349Z,3.46
2023-03-11T02:02:29.646Z,3.34
2023-03-11T02:04:56.982Z,3.28
2023-03-11T02:07:23.502Z,3.25
2023-03-11T02:09:50.042Z,3.18
2023-03-11T02:12:16.713Z,3.11
2023-03-11T02:14:47.905Z,3.27
2023-03-11T02:17:15.079Z,3.36
2023-03-11T02:19:57.402Z,3.22
2023-03-11T02:22:24.451Z,3.31
2023-03-11T02:25:01.891Z,3.30
2023-03-11T02:27:31.308Z,3.37
2023-03-11T02:30:00.392Z,3.47
2023-03-11T02:32:27.587Z,3.55
2023-03-11T02:34:54.212Z,3.50
2023-03-11T02:37:20.843Z,3.51
2023-03-11T02:39:50.200Z,3.50
2023-03-11T02:42:25.351Z,3.28
2023-03-11T02:45:07.801Z,3.37
2023-03-11T02:47:36.036Z,3.31
2023-03-11T02:50:02.730Z,3.45
2023-03-11T02:52:32.015Z,3.21
2023-03-11T02:54:58.568Z,3.34
2023-03-11T02:57:25.216Z,3.42
2023-03-11T02:59:51.772Z,3.30
2023-03-11T03:02:18.360Z,3.29
2023-03-11T03:04:45.000Z,3.35
2023-03-11T03:07:11.749Z,3.29
2023-03-11T03:09:38.372Z,3.35
2023-03-11T03:12:05.489Z,3.38
2023-03-11T03:14:32.569Z,3.25
2023-03-11T03:16:59.421Z,3.57
2023-03-11T03:19:26.138Z,3.35
2023-03-11T03:21:52.696Z,3.58
2023-03-11T03:24:19.262Z,3.25
2023-03-11T03:26:45.809Z,3.45
2023-03-11T03:29:12.386Z,3.51
2023-03-11T03:31:39.706Z,3.35
2023-03-11T03:34:06.243Z,3.45
2023-03-11T03:36:32.815Z,3.39
2023-03-11T03:38:59.758Z,3.29
2023-03-11T03:41:26.379Z,3.51
2023-03-11T03:43:54.683Z,3.26
2023-03-11T03:46:21.809Z,3.23
2023-03-11T03:48:48.424Z,3.27
2023-03-11T03:51:15.980Z,3.33
2023-03-11T03:53:43.027Z,3.41
2023-03-11T03:56:12.039Z,3.04
2023-03-11T03:58:38.883Z,3.25
2023-03-11T04:01:06.486Z,3.31
2023-03-11T04:03:35.074Z,3.02
2023-03-11T04:06:11.278Z,3.13
2023-03-11T04:08:38.076Z,3.18
2023-03-11T04:11:04.723Z,3.11
2023-03-11T04:13:31.552Z,3.34
2023-03-11T04:15:58.300Z,3.57
2023-03-11T04:18:24.896Z,3.47
2023-03-11T04:20:51.409Z,3.29
2023-03-11T04:23:18.022Z,3.21
2023-03-11T04:25:44.622Z,3.52
2023-03-11T04:28:11.188Z,3.46
2023-03-11T04:30:38.077Z,3.50
2023-03-11T04:33:04.659Z,3.68
2023-03-11T04:35:31.205Z,3.84
2023-03-11T04:37:57.767Z,3.78
2023-03-11T04:40:24.342Z,3.66
2023-03-11T04:42:50.868Z,3.89
2023-03-11T04:45:18.500Z,3.92
2023-03-11T04:47:48.640Z,3.77
2023-03-11T04:50:16.014Z,3.87
2023-03-11T04:52:42.760Z,3.69
2023-03-11T04:55:10.018Z,3.52
2023-03-11T04:57:37.199Z,3.59
2023-03-11T05:00:08.725Z,3.63
2023-03-11T05:02:35.587Z,3.61
2023-03-11T05:05:02.204Z,3.66
2023-03-11T05:07:28.907Z,3.71
2023-03-11T05:09:55.401Z,3.70
2023-03-11T05:12:21.928Z,3.58
2023-03-11T05:14:48.765Z,3.68
2023-03-11T05:17:15.889Z,3.48
2023-03-11T05:19:42.449Z,3.46
2023-03-11T05:22:09.058Z,3.32
2023-03-11T05:24:35.626Z,3.28
2023-03-11T05:27:02.343Z,3.31
2023-03-11T05:29:29.788Z,3.28
2023-03-11T05:31:56.605Z,3.47
2023-03-11T05:34:23.539Z,3.64
2023-03-11T05:36:50.151Z,3.59
2023-03-11T05:39:16.804Z,3.48
2023-03-11T05:41:43.440Z,3.64
2023-03-11T05:44:10.083Z,3.71
2023-03-11T05:46:36.690Z,3.63
2023-03-11T05:49:03.364Z,3.70
2023-03-11T05:51:29.961Z,3.66
2023-03-11T05:53:56.965Z,3.36
2023-03-11T05:56:24.102Z,3.36
2023-03-11T05:58:50.793Z,3.65
2023-03-11T06:01:19.397Z,3.68
2023-03-11T06:03:46.170Z,3.81
2023-03-11T06:06:14.162Z,3.76
2023-03-11T06:08:45.859Z,3.69
2023-03-11T06:11:13.188Z,3.65
2023-03-11T06:13:39.730Z,3.58
2023-03-11T06:16:07.235Z,3.99
2023-03-11T06:18:34.317Z,3.84
2023-03-11T06:21:02.044Z,3.76
2023-03-11T06:23:30.134Z,3.82
2023-03-11T06:26:01.741Z,4.10
2023-03-11T06:28:29.261Z,4.10
2023-03-11T06:30:56.809Z,4.02
2023-03-11T06:33:24.041Z,4.22
2023-03-11T06:36:01.352Z,4.25
2023-03-11T06:38:28.054Z,4.19
2023-03-11T06:40:54.923Z,3.98
2023-03-11T06:43:22.149Z,4.05
2023-03-11T06:45:48.789Z,4.20
2023-03-11T06:48:15.373Z,4.20
2023-03-11T06:50:41.953Z,4.11
2023-03-11T06:53:08.808Z,4.21
2023-03-11T06:55:35.866Z,4.14
2023-03-11T06:58:02.982Z,4.46
2023-03-11T07:00:31.199Z,4.55
2023-03-11T07:02:57.956Z,3.66
2023-03-11T07:05:24.613Z,3.99
2023-03-11T07:07:53.898Z,3.83
2023-03-11T07:10:20.458Z,3.88
2023-03-11T07:12:47.355Z,4.07
2023-03-11T07:15:14.259Z,3.88
2023-03-11T07:17:40.835Z,4.01
2023-03-11T07:20:08.524Z,4.38
2023-03-11T07:22:35.058Z,4.35
2023-03-11T07:25:01.736Z,4.37
2023-03-11T07:27:28.952Z,3.86
2023-03-11T07:29:55.480Z,3.84
2023-03-11T07:32:22.116Z,4.55
2023-03-11T07:34:48.733Z,4.42
2023-03-11T07:37:15.492Z,5.36
2023-03-11T07:39:42.155Z,6.17
2023-03-11T07:42:11.572Z,6.83
2023-03-11T07:44:38.160Z,7.37
2023-03-11T07:47:06.077Z,6.92
2023-03-11T07:49:33.093Z,7.64
2023-03-11T07:51:59.779Z,8.19
2023-03-11T07:54:26.387Z,8.01
2023-03-11T07:56:52.936Z,6.89
2023-03-11T07:59:19.893Z,6.95
2023-03-11T08:01:47.349Z,5.62
2023-03-11T08:04:16.834Z,5.34
2023-03-11T08:06:46.069Z,5.41
2023-03-11T08:09:13.500Z,6.13
2023-03-11T08:11:40.583Z,6.26
2023-03-11T08:14:07.314Z,5.43
2023-03-11T08:16:34.114Z,5.57
2023-03-11T08:19:00.720Z,6.14
2023-03-11T08:21:31.769Z,6.53
2023-03-11T08:24:00.889Z,5.88
2023-03-11T08:26:28.397Z,6.29
2023-03-11T08:28:56.213Z,6.65
2023-03-11T08:31:26.939Z,6.29
2023-03-11T08:33:58.362Z,6.67
2023-03-11T08:36:25.025Z,7.86
2023-03-11T08:38:52.046Z,6.85
2023-03-11T08:41:19.374Z,6.32
2023-03-11T08:43:46.238Z,8.55
2023-03-11T08:46:22.719Z,9.64
2023-03-11T08:48:50.928Z,8.42
2023-03-11T08:51:18.012Z,7.57
2023-03-11T08:53:44.663Z,6.73
2023-03-11T08:56:11.347Z,6.53
2023-03-11T08:58:38.280Z,6.66
2023-03-11T09:01:06.192Z,5.35
2023-03-11T09:03:35.408Z,5.53
2023-03-11T09:06:04.898Z,5.41
2023-03-11T09:08:31.573Z,5.44
2023-03-11T09:10:58.461Z,5.71
2023-03-11T09:13:25.414Z,6.05
2023-03-11T09:15:52.853Z,8.33
2023-03-11T09:18:22.633Z,7.06
2023-03-11T09:20:49.389Z,5.62
2023-03-11T09:23:19.785Z,6.01
2023-03-11T09:25:49.139Z,5.95
2023-03-11T09:28:15.695Z,5.65
2023-03-11T09:30:42.314Z,7.72
2023-03-11T09:33:08.986Z,9.44
2023-03-11T09:35:41.233Z,10.98
2023-03-11T09:38:07.784Z,12.14
2023-03-11T09:40:56.543Z,10.28
2023-03-11T09:43:58.329Z,8.00
2023-03-11T09:46:50.858Z,11.31
2023-03-11T09:49:35.835Z,12.33
2023-03-11T09:52:13.908Z,14.01
2023-03-11T09:55:00.398Z,14.08
2023-03-11T09:57:32.249Z,12.44
2023-03-11T10:00:02.736Z,12.39
2023-03-11T10:02:30.817Z,9.95
2023-03-11T10:05:03.307Z,8.02
2023-03-11T10:07:43.797Z,8.22
2023-03-11T10:10:15.030Z,7.61
2023-03-11T10:13:20.068Z,7.77
2023-03-11T10:15:58.568Z,7.63
2023-03-11T10:18:37.437Z,8.71
2023-03-11T10:21:28.694Z,8.59
2023-03-11T10:24:32.014Z,8.09
2023-03-11T10:27:06.231Z,7.85
2023-03-11T10:29:47.191Z,7.69
2023-03-11T10:32:36.208Z,7.21
2023-03-11T10:35:46.235Z,6.66
2023-03-11T10:38:22.399Z,6.92
2023-03-11T10:40:53.678Z,7.38
2023-03-11T10:43:40.543Z,8.21
2023-03-11T10:46:17.763Z,7.63
2023-03-11T10:48:44.413Z,7.70
2023-03-11T10:51:22.837Z,7.84
2023-03-11T10:53:55.684Z,7.72
2023-03-11T10:56:28.700Z,10.20
2023-03-11T10:58:56.121Z,8.26
2023-03-11T11:01:22.878Z,7.58
2023-03-11T11:03:57.624Z,8.37
2023-03-11T11:06:37.386Z,7.50
2023-03-11T11:09:17.969Z,6.81
2023-03-11T11:12:03.332Z,7.35
2023-03-11T11:14:52.960Z,6.98
2023-03-11T11:17:34.274Z,6.76
2023-03-11T11:20:13.094Z,7.00
2023-03-11T11:22:48.837Z,6.55
2023-03-11T11:25:36.930Z,6.17
2023-03-11T11:28:20.858Z,6.23
2023-03-11T11:31:06.125Z,6.27
2023-03-11T11:33:50.879Z,6.70
2023-03-11T11:36:18.896Z,6.92
2023-03-11T11:38:45.470Z,6.99
2023-03-11T11:41:18.212Z,6.43
2023-03-11T11:43:58.218Z,6.70
2023-03-11T11:46:31.444Z,6.58
2023-03-11T11:49:20.833Z,6.52
2023-03-11T11:51:52.092Z,6.80
2023-03-11T11:54:29.229Z,7.12
2023-03-11T11:56:56.898Z,7.90
2023-03-11T11:59:25.238Z,7.89
2023-03-11T12:02:16.494Z,7.61
2023-03-11T12:04:48.043Z,6.83
2023-03-11T12:07:34.198Z,7.60
2023-03-11T12:10:38.318Z,7.24
2023-03-11T12:13:14.295Z,7.62
2023-03-11T12:15:55.503Z,8.16
2023-03-11T12:18:45.071Z,8.03
2023-03-11T12:21:28.307Z,8.10
2023-03-11T12:24:21.719Z,7.90
2023-03-11T12:26:52.284Z,7.90
2023-03-11T12:29:43.332Z,7.40
2023-03-11T12:32:23.561Z,8.52
2023-03-11T12:34:50.392Z,8.40
2023-03-11T12:37:22.469Z,7.75
2023-03-11T12:39:49.120Z,7.72
2023-03-11T12:42:36.853Z,7.97
2023-03-11T12:45:47.421Z,7.73
2023-03-11T12:48:29.407Z,7.75
2023-03-11T12:50:59.913Z,7.73
2023-03-11T12:53:47.146Z,7.77
2023-03-11T12:56:39.613Z,7.54
2023-03-11T12:59:14.563Z,8.19
2023-03-11T13:02:11.984Z,8.54
2023-03-11T13:05:07.628Z,9.54
2023-03-11T13:07:49.044Z,8.29
2023-03-11T13:10:18.563Z,8.05
2023-03-11T13:12:50.407Z,7.87
2023-03-11T13:15:22.692Z,7.76
2023-03-11T13:18:05.255Z,7.18
2023-03-11T13:20:44.378Z,7.09
2023-03-11T13:23:14.110Z,7.93
2023-03-11T13:26:03.751Z,8.20
2023-03-11T13:28:58.427Z,7.67
2023-03-11T13:31:39.200Z,7.59
2023-03-11T13:34:17.465Z,7.91
2023-03-11T13:37:18.124Z,7.19
2023-03-11T13:40:13.996Z,8.02
2023-03-11T13:42:45.743Z,7.57
2023-03-11T13:45:32.196Z,7.79
2023-03-11T13:48:07.870Z,7.84
2023-03-11T13:50:38.879Z,8.41
2023-03-11T13:53:15.692Z,8.19
2023-03-11T13:55:46.325Z,8.21
2023-03-11T13:58:31.092Z,7.80
2023-03-11T14:00:59.943Z,8.32
2023-03-11T14:03:31.646Z,8.34
2023-03-11T14:06:04.955Z,7.69
2023-03-11T14:08:35.547Z,7.65
2023-03-11T14:11:08.316Z,7.06
2023-03-11T14:13:43.385Z,7.24
2023-03-11T14:16:44.333Z,7.24
2023-03-11T14:19:15.897Z,7.91
2023-03-11T14:21:44.291Z,7.97
2023-03-11T14:24:23.519Z,7.29
2023-03-11T14:26:55.080Z,7.47
2023-03-11T14:29:32.807Z,7.58
2023-03-11T14:31:59.565Z,7.61
2023-03-11T14:34:28.818Z,7.60
2023-03-11T14:36:58.894Z,7.23
2023-03-11T14:39:29.632Z,7.39
2023-03-11T14:42:03.926Z,8.10
2023-03-11T14:44:38.641Z,7.80
2023-03-11T14:47:12.052Z,8.12
2023-03-11T14:49:39.688Z,7.70
2023-03-11T14:52:14.074Z,7.88
2023-03-11T14:54:41.682Z,7.78
2023-03-11T14:57:22.266Z,8.13
2023-03-11T14:59:50.671Z,8.13
2023-03-11T15:02:35.764Z,7.17
2023-03-11T15:05:10.380Z,7.75
2023-03-11T15:07:38.336Z,7.82
2023-03-11T15:10:09.979Z,8.54
2023-03-11T15:12:44.158Z,8.23
2023-03-11T15:15:40.694Z,7.91
2023-03-11T15:18:22.800Z,7.74
2023-03-11T15:21:03.870Z,7.67
2023-03-11T15:23:31.053Z,7.44
2023-03-11T15:25:57.733Z,8.06
2023-03-11T15:28:28.068Z,8.11
2023-03-11T15:31:22.448Z,8.80
2023-03-11T15:33:51.512Z,7.90
2023-03-11T15:36:31.394Z,8.28
2023-03-11T15:39:28.898Z,8.95
2023-03-11T15:42:03.547Z,8.84
2023-03-11T15:44:33.306Z,8.90
2023-03-11T15:47:00.904Z,8.28
2023-03-11T15:49:29.119Z,7.70
2023-03-11T15:51:59.855Z,7.72
2023-03-11T15:54:27.223Z,8.12
2023-03-11T15:56:55.514Z,7.39
2023-03-11T15:59:22.428Z,7.85
2023-03-11T16:01:48.959Z,7.60
2023-03-11T16:04:18.498Z,7.44
2023-03-11T16:06:49.584Z,8.07
2023-03-11T16:09:20.835Z,7.85
2023-03-11T16:11:47.424Z,7.96
2023-03-11T16:14:20.580Z,8.11
2023-03-11T16:16:47.613Z,8.07
2023-03-11T16:19:14.320Z,7.52
2023-03-11T16:21:46.006Z,7.00
2023-03-11T16:24:18.959Z,7.58
2023-03-11T16:26:45.809Z,6.93
2023-03-11T16:29:19.359Z,7.28
2023-03-11T16:31:46.526Z,7.28
2023-03-11T16:34:13.268Z,7.18
2023-03-11T16:36:39.849Z,7.26
2023-03-11T16:39:06.733Z,7.27
2023-03-11T16:41:42.172Z,7.31
2023-03-11T16:44:09.959Z,6.99
2023-03-11T16:46:36.956Z,6.75
2023-03-11T16:49:03.992Z,6.77
2023-03-11T16:51:31.149Z,6.95
2023-03-11T16:53:58.069Z,6.73
2023-03-11T16:56:24.731Z,6.81
2023-03-11T16:58:51.458Z,6.73
2023-03-11T17:01:19.156Z,6.55
2023-03-11T17:03:48.797Z,6.60
2023-03-11T17:06:17.045Z,6.19
2023-03-11T17:08:48.881Z,7.05
2023-03-11T17:11:23.259Z,6.83
2023-03-11T17:13:50.498Z,6.97
2023-03-11T17:16:17.190Z,7.42
2023-03-11T17:18:43.952Z,7.61
2023-03-11T17:21:13.381Z,6.80
2023-03-11T17:23:40.303Z,6.20
2023-03-11T17:26:14.995Z,5.70
2023-03-11T17:28:42.425Z,5.68
2023-03-11T17:31:15.191Z,5.74
2023-03-11T17:33:42.396Z,5.81
2023-03-11T17:36:12.904Z,5.42
2023-03-11T17:38:39.570Z,5.44
2023-03-11T17:41:16.924Z,5.35
2023-03-11T17:43:44.172Z,5.25
2023-03-11T17:46:14.372Z,5.57
2023-03-11T17:48:45.217Z,5.41
2023-03-11T17:51:14.600Z,5.18
2023-03-11T17:53:45.549Z,5.28
2023-03-11T17:56:14.505Z,5.15
2023-03-11T17:58:41.876Z,4.96
2023-03-11T18:01:12.871Z,4.85
2023-03-11T18:03:39.474Z,4.70
2023-03-11T18:06:06.831Z,4.56
2023-03-11T18:08:35.431Z,4.74
2023-03-11T18:11:10.499Z,4.62
2023-03-11T18:13:38.622Z,4.81
2023-03-11T18:16:18.081Z,4.80
2023-03-11T18:18:45.203Z,4.64
2023-03-11T18:21:20.621Z,4.44
2023-03-11T18:23:48.191Z,5.02
2023-03-11T18:26:17.392Z,4.67
2023-03-11T18:28:44.820Z,4.58
2023-03-11T18:31:17.237Z,4.60
2023-03-11T18:33:48.940Z,4.58
2023-03-11T18:36:18.128Z,4.33
2023-03-11T18:38:45.337Z,4.18
2023-03-11T18:41:12.136Z,4.03
2023-03-11T18:43:38.664Z,3.95
2023-03-11T18:46:10.231Z,3.96
2023-03-11T18:48:37.630Z,4.04
2023-03-11T18:51:04.660Z,3.97
2023-03-11T18:53:31.249Z,3.95
2023-03-11T18:56:12.424Z,3.99
2023-03-11T18:58:39.004Z,3.78
2023-03-11T19:01:18.044Z,3.76
2023-03-11T19:03:49.815Z,3.73
2023-03-11T19:06:16.696Z,3.66
2023-03-11T19:08:43.782Z,3.26
2023-03-11T19:11:12.386Z,3.50
2023-03-11T19:13:46.597Z,3.57
2023-03-11T19:16:16.949Z,3.63
2023-03-11T19:18:43.891Z,3.47
2023-03-11T19:21:12.979Z,3.55
2023-03-11T19:23:40.177Z,3.45
2023-03-11T19:26:07.168Z,3.28
2023-03-11T19:28:33.943Z,3.21
2023-03-11T19:31:00.577Z,3.22
2023-03-11T19:33:27.589Z,3.93
2023-03-11T19:35:59.687Z,5.30
2023-03-11T19:38:27.343Z,5.97
2023-03-11T19:41:05.005Z,6.32
2023-03-11T19:43:31.944Z,6.44
2023-03-11T19:45:58.677Z,6.01
2023-03-11T19:48:25.285Z,5.65
2023-03-11T19:50:52.062Z,5.72
2023-03-11T19:53:20.433Z,5.54
2023-03-11T19:55:50.101Z,5.80
2023-03-11T19:58:17.926Z,6.12
2023-03-11T20:00:45.126Z,6.30
2023-03-11T20:03:12.818Z,6.31
2023-03-11T20:05:41.236Z,6.38
2023-03-11T20:08:08.718Z,6.40
2023-03-11T20:10:39.940Z,6.38
2023-03-11T20:13:07.185Z,6.47
2023-03-11T20:15:33.816Z,6.38
2023-03-11T20:18:01.173Z,6.31
2023-03-11T20:20:30.880Z,6.41
2023-03-11T20:22:58.201Z,6.46
2023-03-11T20:25:25.593Z,6.41
2023-03-11T20:27:53.293Z,6.03
2023-03-11T20:30:20.236Z,5.70
2023-03-11T20:32:47.449Z,5.64
2023-03-11T20:35:15.261Z,6.10
2023-03-11T20:37:43.390Z,5.35
2023-03-11T20:40:14.824Z,5.35
2023-03-11T20:42:46.627Z,5.20
2023-03-11T20:45:16.223Z,5.18
2023-03-11T20:47:44.348Z,4.64
2023-03-11T20:50:14.386Z,5.18
2023-03-11T20:52:41.040Z,5.53
2023-03-11T20:55:10.116Z,5.77
2023-03-11T20:57:38.147Z,5.85
2023-03-11T21:00:11.630Z,5.90
2023-03-11T21:02:40.021Z,5.80
2023-03-11T21:05:08.476Z,5.90
2023-03-11T21:07:35.654Z,6.03
2023-03-11T21:10:04.639Z,5.94
2023-03-11T21:12:31.464Z,5.99
2023-03-11T21:14:58.230Z,5.81
2023-03-11T21:17:24.853Z,5.89
2023-03-11T21:19:51.530Z,5.99
2023-03-11T21:22:18.156Z,5.87
2023-03-11T21:24:45.285Z,5.79
2023-03-11T21:27:12.067Z,5.70
2023-03-11T21:29:38.745Z,5.71
2023-03-11T21:32:05.768Z,5.72
2023-03-11T21:34:32.557Z,5.59
2023-03-11T21:36:59.191Z,5.70
2023-03-11T21:39:25.764Z,5.59
2023-03-11T21:41:53.323Z,5.57
2023-03-11T21:44:20.063Z,5.66
2023-03-11T21:46:47.083Z,5.60
2023-03-11T21:49:14.928Z,5.62
2023-03-11T21:51:41.790Z,5.64
2023-03-11T21:54:10.429Z,5.40
2023-03-11T21:56:37.144Z,5.41
2023-03-11T21:59:04.269Z,5.16
2023-03-11T22:01:31.522Z,4.97
2023-03-11T22:03:58.362Z,5.19
2023-03-11T22:06:25.174Z,5.43
2023-03-11T22:08:52.463Z,5.44
2023-03-11T22:11:20.521Z,5.15
2023-03-11T22:13:49.478Z,4.40
2023-03-11T22:16:16.773Z,4.14
2023-03-11T22:18:43.736Z,4.63
2023-03-11T22:21:11.177Z,5.00
2023-03-11T22:23:37.994Z,5.21
2023-03-11T22:26:04.938Z,4.23
2023-03-11T22:28:31.645Z,4.71
2023-03-11T22:30:58.404Z,4.60
2023-03-11T22:33:26.015Z,4.94
2023-03-11T22:35:57.392Z,5.06
2023-03-11T22:38:24.022Z,5.10
2023-03-11T22:40:51.105Z,4.88
2023-03-11T22:43:17.769Z,4.94
2023-03-11T22:45:45.062Z,5.31
2023-03-11T22:48:11.606Z,5.32
2023-03-11T22:50:42.352Z,5.05
2023-03-11T22:53:08.958Z,5.27
2023-03-11T22:55:39.973Z,5.23
2023-03-11T22:58:06.898Z,5.28
2023-03-11T23:00:34.038Z,5.11
2023-03-11T23:03:00.719Z,5.04
2023-03-11T23:05:27.434Z,4.35
2023-03-11T23:07:54.108Z,4.60
2023-03-11T23:10:21.556Z,4.54
2023-03-11T23:12:48.933Z,4.78
2023-03-11T23:15:18.040Z,3.92
2023-03-11T23:17:44.648Z,3.50
2023-03-11T23:20:13.880Z,3.23
2023-03-11T23:22:41.702Z,3.40
2023-03-11T23:25:11.694Z,3.29
2023-03-11T23:27:38.233Z,3.56
2023-03-11T23:30:05.777Z,4.31
2023-03-11T23:32:32.394Z,4.04
2023-03-11T23:34:59.024Z,4.26
2023-03-11T23:37:25.565Z,4.14
2023-03-11T23:39:52.211Z,4.19
2023-03-11T23:42:25.841Z,4.66
2023-03-11T23:44:53.225Z,4.60
2023-03-11T23:47:19.834Z,4.80
2023-03-11T23:49:46.386Z,4.82
2023-03-11T23:52:12.951Z,4.78
2023-03-11T23:54:39.492Z,4.53
2023-03-11T23:57:06.068Z,4.47
2023-03-11T23:59:32.755Z,4.59
